sensor_id;sensor_type;location;lat;lon;timestamp;temperature;humidity
66312;HTU21D;53114;51.138;6.008;2022-10-17T00:01:46;14.80;118.99
66312;HTU21D;53114;51.138;6.008;2022-10-17T00:04:12;14.77;118.99
66312;HTU21D;53114;51.138;6.008;2022-10-17T00:06:41;14.75;118.99
66312;HTU21D;53114;51.138;6.008;2022-10-17T00:09:06;14.77;118.99
66312;HTU21D;53114;51.138;6.008;2022-10-17T00:11:34;14.80;118.99
66312;HTU21D;53114;51.138;6.008;2022-10-17T00:14:01;14.79;118.99
66312;HTU21D;53114;51.138;6.008;2022-10-17T00:16:29;14.78;118.99
66312;HTU21D;53114;51.138;6.008;2022-10-17T00:18:57;14.73;118.99
66312;HTU21D;53114;51.138;6.008;2022-10-17T00:21:24;14.73;118.99
66312;HTU21D;53114;51.138;6.008;2022-10-17T00:23:51;14.70;118.99
66312;HTU21D;53114;51.138;6.008;2022-10-17T00:26:17;14.71;118.99
66312;HTU21D;53114;51.138;6.008;2022-10-17T00:28:48;14.74;118.99
66312;HTU21D;53114;51.138;6.008;2022-10-17T00:31:16;14.77;118.99
66312;HTU21D;53114;51.138;6.008;2022-10-17T00:33:42;14.77;118.99
66312;HTU21D;53114;51.138;6.008;2022-10-17T00:36:19;14.74;118.99
66312;HTU21D;53114;51.138;6.008;2022-10-17T00:38:48;14.74;118.99
66312;HTU21D;53114;51.138;6.008;2022-10-17T00:41:17;14.72;118.99
66312;HTU21D;53114;51.138;6.008;2022-10-17T00:46:25;14.68;118.99
66312;HTU21D;53114;51.138;6.008;2022-10-17T00:48:53;14.65;118.99
66312;HTU21D;53114;51.138;6.008;2022-10-17T00:54:24;14.67;118.99
66312;HTU21D;53114;51.138;6.008;2022-10-17T00:56:52;14.70;118.99
66312;HTU21D;53114;51.138;6.008;2022-10-17T00:59:20;14.71;118.99
66312;HTU21D;53114;51.138;6.008;2022-10-17T01:02:19;14.74;118.99
66312;HTU21D;53114;51.138;6.008;2022-10-17T01:04:47;14.79;118.99
66312;HTU21D;53114;51.138;6.008;2022-10-17T01:07:13;14.81;118.99
66312;HTU21D;53114;51.138;6.008;2022-10-17T01:09:42;14.83;118.99
66312;HTU21D;53114;51.138;6.008;2022-10-17T01:12:22;14.80;118.99
66312;HTU21D;53114;51.138;6.008;2022-10-17T01:26:40;14.82;118.99
66312;HTU21D;53114;51.138;6.008;2022-10-17T01:32:01;14.82;118.99
66312;HTU21D;53114;51.138;6.008;2022-10-17T01:34:40;14.82;118.99
66312;HTU21D;53114;51.138;6.008;2022-10-17T01:37:26;14.82;118.99
66312;HTU21D;53114;51.138;6.008;2022-10-17T01:40:08;14.80;118.99
66312;HTU21D;53114;51.138;6.008;2022-10-17T01:42:46;14.77;118.99
66312;HTU21D;53114;51.138;6.008;2022-10-17T01:48:07;14.77;118.99
66312;HTU21D;53114;51.138;6.008;2022-10-17T01:50:42;14.79;118.99
66312;HTU21D;53114;51.138;6.008;2022-10-17T01:53:20;14.80;118.99
66312;HTU21D;53114;51.138;6.008;2022-10-17T01:55:50;14.79;118.99
66312;HTU21D;53114;51.138;6.008;2022-10-17T01:58:32;14.79;118.99
66312;HTU21D;53114;51.138;6.008;2022-10-17T02:01:03;14.77;118.99
66312;HTU21D;53114;51.138;6.008;2022-10-17T02:03:32;14.75;118.99
66312;HTU21D;53114;51.138;6.008;2022-10-17T02:05:59;14.73;118.99
66312;HTU21D;53114;51.138;6.008;2022-10-17T02:08:39;14.70;118.99
66312;HTU21D;53114;51.138;6.008;2022-10-17T02:11:15;14.69;118.99
66312;HTU21D;53114;51.138;6.008;2022-10-17T02:14:08;14.67;118.99
66312;HTU21D;53114;51.138;6.008;2022-10-17T02:20:14;14.65;118.99
66312;HTU21D;53114;51.138;6.008;2022-10-17T02:25:41;14.64;118.99
66312;HTU21D;53114;51.138;6.008;2022-10-17T02:31:13;14.60;118.99
66312;HTU21D;53114;51.138;6.008;2022-10-17T02:33:55;14.57;118.99
66312;HTU21D;53114;51.138;6.008;2022-10-17T02:36:29;14.55;118.99
66312;HTU21D;53114;51.138;6.008;2022-10-17T02:38:58;14.53;118.99
66312;HTU21D;53114;51.138;6.008;2022-10-17T02:41:28;14.53;118.99
66312;HTU21D;53114;51.138;6.008;2022-10-17T02:43:55;14.57;118.99
66312;HTU21D;53114;51.138;6.008;2022-10-17T02:46:27;14.57;118.99
66312;HTU21D;53114;51.138;6.008;2022-10-17T02:52:00;14.62;118.99
66312;HTU21D;53114;51.138;6.008;2022-10-17T02:59:39;14.59;118.99
66312;HTU21D;53114;51.138;6.008;2022-10-17T03:02:06;14.63;118.99
66312;HTU21D;53114;51.138;6.008;2022-10-17T03:04:33;14.64;118.99
66312;HTU21D;53114;51.138;6.008;2022-10-17T03:06:59;14.63;118.99
66312;HTU21D;53114;51.138;6.008;2022-10-17T03:09:24;14.62;118.99
66312;HTU21D;53114;51.138;6.008;2022-10-17T03:11:50;14.63;118.99
66312;HTU21D;53114;51.138;6.008;2022-10-17T03:14:18;14.63;118.99
66312;HTU21D;53114;51.138;6.008;2022-10-17T03:16:44;14.59;118.99
66312;HTU21D;53114;51.138;6.008;2022-10-17T03:19:10;14.58;118.99
66312;HTU21D;53114;51.138;6.008;2022-10-17T03:21:36;14.55;118.99
66312;HTU21D;53114;51.138;6.008;2022-10-17T03:24:03;14.54;118.99
66312;HTU21D;53114;51.138;6.008;2022-10-17T03:26:30;14.52;118.99
66312;HTU21D;53114;51.138;6.008;2022-10-17T03:28:56;14.49;118.99
66312;HTU21D;53114;51.138;6.008;2022-10-17T03:31:22;14.47;118.99
66312;HTU21D;53114;51.138;6.008;2022-10-17T03:33:50;14.44;118.99
66312;HTU21D;53114;51.138;6.008;2022-10-17T03:36:18;14.41;118.99
66312;HTU21D;53114;51.138;6.008;2022-10-17T03:38:46;14.38;118.99
66312;HTU21D;53114;51.138;6.008;2022-10-17T03:41:13;14.35;118.99
66312;HTU21D;53114;51.138;6.008;2022-10-17T03:43:39;14.32;118.99
66312;HTU21D;53114;51.138;6.008;2022-10-17T03:46:06;14.32;118.99
66312;HTU21D;53114;51.138;6.008;2022-10-17T03:48:33;14.33;118.99
66312;HTU21D;53114;51.138;6.008;2022-10-17T03:51:00;14.33;118.99
66312;HTU21D;53114;51.138;6.008;2022-10-17T03:53:28;14.36;118.99
66312;HTU21D;53114;51.138;6.008;2022-10-17T03:55:56;14.40;118.99
66312;HTU21D;53114;51.138;6.008;2022-10-17T03:58:22;14.45;118.99
66312;HTU21D;53114;51.138;6.008;2022-10-17T04:00:48;14.50;118.99
66312;HTU21D;53114;51.138;6.008;2022-10-17T04:03:14;14.54;118.99
66312;HTU21D;53114;51.138;6.008;2022-10-17T04:05:40;14.58;118.99
66312;HTU21D;53114;51.138;6.008;2022-10-17T04:08:06;14.62;118.99
66312;HTU21D;53114;51.138;6.008;2022-10-17T04:10:59;14.64;118.99
66312;HTU21D;53114;51.138;6.008;2022-10-17T04:13:26;14.63;118.99
66312;HTU21D;53114;51.138;6.008;2022-10-17T04:16:04;14.67;118.99
66312;HTU21D;53114;51.138;6.008;2022-10-17T04:18:30;14.70;118.99
66312;HTU21D;53114;51.138;6.008;2022-10-17T04:20:56;14.73;118.99
66312;HTU21D;53114;51.138;6.008;2022-10-17T04:23:22;14.77;118.99
66312;HTU21D;53114;51.138;6.008;2022-10-17T04:25:55;14.83;118.99
66312;HTU21D;53114;51.138;6.008;2022-10-17T04:28:22;14.89;118.99
66312;HTU21D;53114;51.138;6.008;2022-10-17T04:30:58;14.87;118.99
66312;HTU21D;53114;51.138;6.008;2022-10-17T04:33:27;14.87;118.99
66312;HTU21D;53114;51.138;6.008;2022-10-17T04:36:05;14.91;118.99
66312;HTU21D;53114;51.138;6.008;2022-10-17T04:38:32;14.91;118.99
66312;HTU21D;53114;51.138;6.008;2022-10-17T04:41:04;14.92;118.99
66312;HTU21D;53114;51.138;6.008;2022-10-17T04:43:32;14.89;118.99
66312;HTU21D;53114;51.138;6.008;2022-10-17T04:46:05;14.89;118.99
66312;HTU21D;53114;51.138;6.008;2022-10-17T04:48:32;14.88;118.99
66312;HTU21D;53114;51.138;6.008;2022-10-17T04:51:00;14.87;118.99
66312;HTU21D;53114;51.138;6.008;2022-10-17T04:53:36;14.91;118.99
66312;HTU21D;53114;51.138;6.008;2022-10-17T04:56:12;14.97;118.99
66312;HTU21D;53114;51.138;6.008;2022-10-17T04:58:39;15.00;118.99
66312;HTU21D;53114;51.138;6.008;2022-10-17T05:01:07;15.02;118.99
66312;HTU21D;53114;51.138;6.008;2022-10-17T05:03:37;15.07;118.99
66312;HTU21D;53114;51.138;6.008;2022-10-17T05:06:05;15.11;118.99
66312;HTU21D;53114;51.138;6.008;2022-10-17T05:08:32;15.12;118.99
66312;HTU21D;53114;51.138;6.008;2022-10-17T05:10:59;15.12;118.99
66312;HTU21D;53114;51.138;6.008;2022-10-17T05:13:25;15.12;118.99
66312;HTU21D;53114;51.138;6.008;2022-10-17T05:15:51;15.13;118.99
66312;HTU21D;53114;51.138;6.008;2022-10-17T05:18:17;15.16;118.99
66312;HTU21D;53114;51.138;6.008;2022-10-17T05:20:43;15.17;118.99
66312;HTU21D;53114;51.138;6.008;2022-10-17T05:23:09;15.15;118.99
66312;HTU21D;53114;51.138;6.008;2022-10-17T05:25:39;15.15;118.99
66312;HTU21D;53114;51.138;6.008;2022-10-17T05:28:05;15.15;118.99
66312;HTU21D;53114;51.138;6.008;2022-10-17T05:30:31;15.14;118.99
66312;HTU21D;53114;51.138;6.008;2022-10-17T05:32:59;15.14;118.99
66312;HTU21D;53114;51.138;6.008;2022-10-17T05:35:25;15.11;118.99
66312;HTU21D;53114;51.138;6.008;2022-10-17T05:37:51;15.13;118.99
66312;HTU21D;53114;51.138;6.008;2022-10-17T05:40:19;15.11;118.99
66312;HTU21D;53114;51.138;6.008;2022-10-17T05:42:48;15.13;118.99
66312;HTU21D;53114;51.138;6.008;2022-10-17T05:45:16;15.15;118.99
66312;HTU21D;53114;51.138;6.008;2022-10-17T05:47:42;15.17;118.99
66312;HTU21D;53114;51.138;6.008;2022-10-17T05:50:08;15.21;118.99
66312;HTU21D;53114;51.138;6.008;2022-10-17T05:52:53;15.26;118.99
66312;HTU21D;53114;51.138;6.008;2022-10-17T05:55:21;15.29;118.99
66312;HTU21D;53114;51.138;6.008;2022-10-17T05:57:50;15.31;118.99
66312;HTU21D;53114;51.138;6.008;2022-10-17T06:00:18;15.36;118.99
66312;HTU21D;53114;51.138;6.008;2022-10-17T06:02:51;15.41;118.99
66312;HTU21D;53114;51.138;6.008;2022-10-17T06:05:19;15.46;118.99
66312;HTU21D;53114;51.138;6.008;2022-10-17T06:07:45;15.53;118.99
66312;HTU21D;53114;51.138;6.008;2022-10-17T06:10:13;15.56;118.99
66312;HTU21D;53114;51.138;6.008;2022-10-17T06:12:42;15.59;118.99
66312;HTU21D;53114;51.138;6.008;2022-10-17T06:15:08;15.63;118.99
66312;HTU21D;53114;51.138;6.008;2022-10-17T06:17:35;15.67;118.99
66312;HTU21D;53114;51.138;6.008;2022-10-17T06:20:01;15.67;118.99
66312;HTU21D;53114;51.138;6.008;2022-10-17T06:22:27;15.67;118.99
66312;HTU21D;53114;51.138;6.008;2022-10-17T06:24:55;15.69;118.99
66312;HTU21D;53114;51.138;6.008;2022-10-17T06:27:21;15.73;118.99
66312;HTU21D;53114;51.138;6.008;2022-10-17T06:29:47;15.73;118.99
66312;HTU21D;53114;51.138;6.008;2022-10-17T06:32:16;15.80;118.99
66312;HTU21D;53114;51.138;6.008;2022-10-17T06:34:45;15.89;118.99
66312;HTU21D;53114;51.138;6.008;2022-10-17T06:37:13;15.96;118.99
66312;HTU21D;53114;51.138;6.008;2022-10-17T06:39:40;16.03;118.99
66312;HTU21D;53114;51.138;6.008;2022-10-17T06:42:11;16.07;118.99
66312;HTU21D;53114;51.138;6.008;2022-10-17T06:44:53;16.10;118.99
66312;HTU21D;53114;51.138;6.008;2022-10-17T06:47:38;16.16;118.99
66312;HTU21D;53114;51.138;6.008;2022-10-17T06:50:18;16.20;118.99
66312;HTU21D;53114;51.138;6.008;2022-10-17T06:52:57;16.30;118.99
66312;HTU21D;53114;51.138;6.008;2022-10-17T06:55:43;16.36;118.99
66312;HTU21D;53114;51.138;6.008;2022-10-17T06:58:17;16.42;118.99
66312;HTU21D;53114;51.138;6.008;2022-10-17T07:01:03;16.47;118.99
66312;HTU21D;53114;51.138;6.008;2022-10-17T07:03:29;16.54;118.99
66312;HTU21D;53114;51.138;6.008;2022-10-17T07:05:55;16.59;118.99
66312;HTU21D;53114;51.138;6.008;2022-10-17T07:08:24;16.65;118.99
66312;HTU21D;53114;51.138;6.008;2022-10-17T07:10:50;16.71;118.99
66312;HTU21D;53114;51.138;6.008;2022-10-17T07:13:18;16.78;118.99
66312;HTU21D;53114;51.138;6.008;2022-10-17T07:15:44;16.85;118.99
66312;HTU21D;53114;51.138;6.008;2022-10-17T07:18:11;16.92;118.99
66312;HTU21D;53114;51.138;6.008;2022-10-17T07:20:38;16.98;118.99
66312;HTU21D;53114;51.138;6.008;2022-10-17T07:23:05;17.04;118.99
66312;HTU21D;53114;51.138;6.008;2022-10-17T07:25:31;17.10;118.99
66312;HTU21D;53114;51.138;6.008;2022-10-17T07:28:04;17.15;118.99
66312;HTU21D;53114;51.138;6.008;2022-10-17T07:30:31;17.17;118.99
66312;HTU21D;53114;51.138;6.008;2022-10-17T07:33:06;17.20;118.99
66312;HTU21D;53114;51.138;6.008;2022-10-17T07:35:33;17.23;118.99
66312;HTU21D;53114;51.138;6.008;2022-10-17T07:37:59;17.32;118.99
66312;HTU21D;53114;51.138;6.008;2022-10-17T07:40:25;17.37;118.99
66312;HTU21D;53114;51.138;6.008;2022-10-17T07:42:51;17.43;118.99
66312;HTU21D;53114;51.138;6.008;2022-10-17T07:45:19;17.49;118.99
66312;HTU21D;53114;51.138;6.008;2022-10-17T07:47:45;17.53;118.99
66312;HTU21D;53114;51.138;6.008;2022-10-17T07:50:14;17.64;118.99
66312;HTU21D;53114;51.138;6.008;2022-10-17T07:52:40;17.70;118.99
66312;HTU21D;53114;51.138;6.008;2022-10-17T07:55:08;17.75;118.99
66312;HTU21D;53114;51.138;6.008;2022-10-17T07:57:34;17.81;118.99
66312;HTU21D;53114;51.138;6.008;2022-10-17T08:00:00;17.87;118.99
66312;HTU21D;53114;51.138;6.008;2022-10-17T08:02:26;17.89;118.99
66312;HTU21D;53114;51.138;6.008;2022-10-17T08:04:53;18.06;118.99
66312;HTU21D;53114;51.138;6.008;2022-10-17T08:07:19;18.20;118.99
66312;HTU21D;53114;51.138;6.008;2022-10-17T08:09:46;18.41;118.99
66312;HTU21D;53114;51.138;6.008;2022-10-17T08:12:13;18.58;118.99
66312;HTU21D;53114;51.138;6.008;2022-10-17T08:14:40;18.78;118.99
66312;HTU21D;53114;51.138;6.008;2022-10-17T08:17:09;19.00;118.99
66312;HTU21D;53114;51.138;6.008;2022-10-17T08:19:39;19.24;118.99
66312;HTU21D;53114;51.138;6.008;2022-10-17T08:22:06;19.26;118.99
66312;HTU21D;53114;51.138;6.008;2022-10-17T08:24:32;19.29;118.99
66312;HTU21D;53114;51.138;6.008;2022-10-17T08:26:58;19.26;118.99
66312;HTU21D;53114;51.138;6.008;2022-10-17T08:29:25;19.32;118.99
66312;HTU21D;53114;51.138;6.008;2022-10-17T08:31:51;19.33;118.99
66312;HTU21D;53114;51.138;6.008;2022-10-17T08:34:18;19.41;118.99
66312;HTU21D;53114;51.138;6.008;2022-10-17T08:36:43;19.50;118.99
66312;HTU21D;53114;51.138;6.008;2022-10-17T08:39:09;19.75;118.99
66312;HTU21D;53114;51.138;6.008;2022-10-17T08:42:02;20.00;118.99
66312;HTU21D;53114;51.138;6.008;2022-10-17T08:45:32;20.00;118.99
66312;HTU21D;53114;51.138;6.008;2022-10-17T08:47:33;19.91;118.99
66312;HTU21D;53114;51.138;6.008;2022-10-17T08:50:10;19.86;118.99
66312;HTU21D;53114;51.138;6.008;2022-10-17T08:52:45;19.84;118.99
66312;HTU21D;53114;51.138;6.008;2022-10-17T08:55:18;19.82;118.99
66312;HTU21D;53114;51.138;6.008;2022-10-17T08:57:47;19.85;118.99
66312;HTU21D;53114;51.138;6.008;2022-10-17T09:00:19;19.84;118.99
66312;HTU21D;53114;51.138;6.008;2022-10-17T09:11:21;19.85;118.99
66312;HTU21D;53114;51.138;6.008;2022-10-17T09:19:43;19.74;118.99
66312;HTU21D;53114;51.138;6.008;2022-10-17T09:22:24;19.71;118.99
66312;HTU21D;53114;51.138;6.008;2022-10-17T09:24:59;19.73;118.99
66312;HTU21D;53114;51.138;6.008;2022-10-17T09:27:44;19.73;118.99
66312;HTU21D;53114;51.138;6.008;2022-10-17T09:30:18;19.72;118.99
66312;HTU21D;53114;51.138;6.008;2022-10-17T09:32:45;19.73;118.99
66312;HTU21D;53114;51.138;6.008;2022-10-17T09:35:16;19.73;118.99
66312;HTU21D;53114;51.138;6.008;2022-10-17T09:37:43;19.75;118.99
66312;HTU21D;53114;51.138;6.008;2022-10-17T09:40:31;19.77;118.99
66312;HTU21D;53114;51.138;6.008;2022-10-17T09:43:00;19.81;118.99
66312;HTU21D;53114;51.138;6.008;2022-10-17T09:45:31;19.80;118.99
66312;HTU21D;53114;51.138;6.008;2022-10-17T09:48:25;19.79;118.99
66312;HTU21D;53114;51.138;6.008;2022-10-17T09:50:55;19.79;118.99
66312;HTU21D;53114;51.138;6.008;2022-10-17T09:53:26;19.76;118.99
66312;HTU21D;53114;51.138;6.008;2022-10-17T09:55:57;19.74;118.99
66312;HTU21D;53114;51.138;6.008;2022-10-17T09:58:39;19.76;118.99
66312;HTU21D;53114;51.138;6.008;2022-10-17T10:01:34;19.85;118.99
66312;HTU21D;53114;51.138;6.008;2022-10-17T10:04:14;19.91;118.99
66312;HTU21D;53114;51.138;6.008;2022-10-17T10:07:00;20.00;118.99
66312;HTU21D;53114;51.138;6.008;2022-10-17T10:09:32;20.12;118.99
66312;HTU21D;53114;51.138;6.008;2022-10-17T10:12:04;20.22;118.99
66312;HTU21D;53114;51.138;6.008;2022-10-17T10:14:36;20.33;118.99
66312;HTU21D;53114;51.138;6.008;2022-10-17T10:17:23;20.33;118.99
66312;HTU21D;53114;51.138;6.008;2022-10-17T10:19:51;20.26;118.99
66312;HTU21D;53114;51.138;6.008;2022-10-17T10:22:19;20.16;118.99
66312;HTU21D;53114;51.138;6.008;2022-10-17T10:27:33;19.77;118.99
66312;HTU21D;53114;51.138;6.008;2022-10-17T10:30:00;19.63;118.99
66312;HTU21D;53114;51.138;6.008;2022-10-17T10:32:33;19.52;118.99
66312;HTU21D;53114;51.138;6.008;2022-10-17T10:35:06;19.43;118.99
66312;HTU21D;53114;51.138;6.008;2022-10-17T10:37:40;19.40;118.99
66312;HTU21D;53114;51.138;6.008;2022-10-17T10:40:21;19.33;118.99
66312;HTU21D;53114;51.138;6.008;2022-10-17T10:42:51;19.36;118.99
66312;HTU21D;53114;51.138;6.008;2022-10-17T10:45:24;19.33;118.99
66312;HTU21D;53114;51.138;6.008;2022-10-17T10:47:59;19.45;118.99
66312;HTU21D;53114;51.138;6.008;2022-10-17T10:50:45;19.67;118.99
66312;HTU21D;53114;51.138;6.008;2022-10-17T10:53:40;19.82;118.99
66312;HTU21D;53114;51.138;6.008;2022-10-17T10:56:20;19.86;118.99
66312;HTU21D;53114;51.138;6.008;2022-10-17T10:59:00;19.87;118.99
66312;HTU21D;53114;51.138;6.008;2022-10-17T11:04:25;20.01;118.99
66312;HTU21D;53114;51.138;6.008;2022-10-17T11:07:01;20.07;118.99
66312;HTU21D;53114;51.138;6.008;2022-10-17T11:12:24;20.04;118.99
66312;HTU21D;53114;51.138;6.008;2022-10-17T11:18:05;20.10;118.99
66312;HTU21D;53114;51.138;6.008;2022-10-17T11:20:44;20.04;118.99
66312;HTU21D;53114;51.138;6.008;2022-10-17T11:23:40;19.95;118.99
66312;HTU21D;53114;51.138;6.008;2022-10-17T11:26:20;19.83;118.99
66312;HTU21D;53114;51.138;6.008;2022-10-17T11:28:53;19.75;118.99
66312;HTU21D;53114;51.138;6.008;2022-10-17T11:31:23;19.61;118.99
66312;HTU21D;53114;51.138;6.008;2022-10-17T11:34:03;19.47;118.99
66312;HTU21D;53114;51.138;6.008;2022-10-17T11:36:38;19.35;118.99
66312;HTU21D;53114;51.138;6.008;2022-10-17T11:39:14;19.29;118.99
66312;HTU21D;53114;51.138;6.008;2022-10-17T11:41:52;19.31;118.99
66312;HTU21D;53114;51.138;6.008;2022-10-17T11:44:35;19.38;118.99
66312;HTU21D;53114;51.138;6.008;2022-10-17T11:49:47;19.50;118.99
66312;HTU21D;53114;51.138;6.008;2022-10-17T12:04:43;19.77;118.99
66312;HTU21D;53114;51.138;6.008;2022-10-17T12:12:31;19.90;118.99
66312;HTU21D;53114;51.138;6.008;2022-10-17T12:15:27;20.04;118.99
66312;HTU21D;53114;51.138;6.008;2022-10-17T12:18:01;20.15;118.99
66312;HTU21D;53114;51.138;6.008;2022-10-17T12:20:36;20.24;118.99
66312;HTU21D;53114;51.138;6.008;2022-10-17T12:25:34;20.28;118.99
66312;HTU21D;53114;51.138;6.008;2022-10-17T12:33:53;20.29;118.99
66312;HTU21D;53114;51.138;6.008;2022-10-17T12:47:27;20.18;118.99
66312;HTU21D;53114;51.138;6.008;2022-10-17T12:49:53;20.16;118.99
66312;HTU21D;53114;51.138;6.008;2022-10-17T12:52:26;20.17;118.99
66312;HTU21D;53114;51.138;6.008;2022-10-17T12:55:17;20.21;118.99
66312;HTU21D;53114;51.138;6.008;2022-10-17T12:58:02;20.25;118.99
66312;HTU21D;53114;51.138;6.008;2022-10-17T13:00:48;20.26;118.99
66312;HTU21D;53114;51.138;6.008;2022-10-17T13:03:24;20.27;118.99
66312;HTU21D;53114;51.138;6.008;2022-10-17T13:06:01;20.25;118.99
66312;HTU21D;53114;51.138;6.008;2022-10-17T13:08:28;20.27;118.99
66312;HTU21D;53114;51.138;6.008;2022-10-17T13:10:56;20.27;118.99
66312;HTU21D;53114;51.138;6.008;2022-10-17T13:13:42;20.27;118.99
66312;HTU21D;53114;51.138;6.008;2022-10-17T13:16:30;20.26;118.99
66312;HTU21D;53114;51.138;6.008;2022-10-17T13:18:58;20.29;118.99
66312;HTU21D;53114;51.138;6.008;2022-10-17T13:21:25;20.29;118.99
66312;HTU21D;53114;51.138;6.008;2022-10-17T13:23:52;20.30;118.99
66312;HTU21D;53114;51.138;6.008;2022-10-17T13:26:22;20.32;118.99
66312;HTU21D;53114;51.138;6.008;2022-10-17T13:30:16;20.35;118.99
66312;HTU21D;53114;51.138;6.008;2022-10-17T13:33:00;20.41;118.99
66312;HTU21D;53114;51.138;6.008;2022-10-17T13:35:56;20.50;118.99
66312;HTU21D;53114;51.138;6.008;2022-10-17T13:41:26;20.60;118.99
66312;HTU21D;53114;51.138;6.008;2022-10-17T13:44:22;20.56;118.99
66312;HTU21D;53114;51.138;6.008;2022-10-17T13:46:51;20.50;118.99
66312;HTU21D;53114;51.138;6.008;2022-10-17T13:49:40;20.48;118.99
66312;HTU21D;53114;51.138;6.008;2022-10-17T13:52:29;20.47;118.99
66312;HTU21D;53114;51.138;6.008;2022-10-17T13:55:20;20.49;118.99
66312;HTU21D;53114;51.138;6.008;2022-10-17T13:57:49;20.47;118.99
66312;HTU21D;53114;51.138;6.008;2022-10-17T14:03:41;20.49;118.99
66312;HTU21D;53114;51.138;6.008;2022-10-17T14:08:57;20.46;118.99
66312;HTU21D;53114;51.138;6.008;2022-10-17T14:11:26;20.44;118.99
66312;HTU21D;53114;51.138;6.008;2022-10-17T14:13:56;20.43;118.99
66312;HTU21D;53114;51.138;6.008;2022-10-17T14:16:25;20.40;118.99
66312;HTU21D;53114;51.138;6.008;2022-10-17T14:18:53;20.37;118.99
66312;HTU21D;53114;51.138;6.008;2022-10-17T14:21:24;20.35;118.99
66312;HTU21D;53114;51.138;6.008;2022-10-17T14:24:27;20.30;118.99
66312;HTU21D;53114;51.138;6.008;2022-10-17T14:27:37;20.30;118.99
66312;HTU21D;53114;51.138;6.008;2022-10-17T14:30:48;20.34;118.99
66312;HTU21D;53114;51.138;6.008;2022-10-17T14:33:28;20.39;118.99
66312;HTU21D;53114;51.138;6.008;2022-10-17T14:36:03;20.37;118.99
66312;HTU21D;53114;51.138;6.008;2022-10-17T14:38:30;20.33;118.99
66312;HTU21D;53114;51.138;6.008;2022-10-17T14:41:01;20.27;118.99
66312;HTU21D;53114;51.138;6.008;2022-10-17T14:44:37;20.13;118.99
66312;HTU21D;53114;51.138;6.008;2022-10-17T14:47:05;20.07;118.99
66312;HTU21D;53114;51.138;6.008;2022-10-17T14:54:43;19.90;118.99
66312;HTU21D;53114;51.138;6.008;2022-10-17T14:57:38;19.83;118.99
66312;HTU21D;53114;51.138;6.008;2022-10-17T15:00:05;19.76;118.99
66312;HTU21D;53114;51.138;6.008;2022-10-17T15:02:31;19.73;118.99
66312;HTU21D;53114;51.138;6.008;2022-10-17T15:04:57;19.68;118.99
66312;HTU21D;53114;51.138;6.008;2022-10-17T15:07:23;19.63;118.99
66312;HTU21D;53114;51.138;6.008;2022-10-17T15:09:51;19.59;118.99
66312;HTU21D;53114;51.138;6.008;2022-10-17T15:12:23;19.53;118.99
66312;HTU21D;53114;51.138;6.008;2022-10-17T15:14:50;19.45;118.99
66312;HTU21D;53114;51.138;6.008;2022-10-17T15:17:27;19.40;118.99
66312;HTU21D;53114;51.138;6.008;2022-10-17T15:19:54;19.38;118.99
66312;HTU21D;53114;51.138;6.008;2022-10-17T15:22:21;19.28;118.99
66312;HTU21D;53114;51.138;6.008;2022-10-17T15:24:59;19.21;118.99
66312;HTU21D;53114;51.138;6.008;2022-10-17T15:27:26;19.12;118.99
66312;HTU21D;53114;51.138;6.008;2022-10-17T15:29:53;19.09;118.99
66312;HTU21D;53114;51.138;6.008;2022-10-17T15:32:19;19.06;118.99
66312;HTU21D;53114;51.138;6.008;2022-10-17T15:34:45;19.01;118.99
66312;HTU21D;53114;51.138;6.008;2022-10-17T15:37:23;19.01;118.99
66312;HTU21D;53114;51.138;6.008;2022-10-17T15:39:51;19.01;118.99
66312;HTU21D;53114;51.138;6.008;2022-10-17T15:42:29;19.02;118.99
66312;HTU21D;53114;51.138;6.008;2022-10-17T15:44:56;19.06;118.99
66312;HTU21D;53114;51.138;6.008;2022-10-17T15:47:30;19.09;118.99
66312;HTU21D;53114;51.138;6.008;2022-10-17T15:50:00;19.10;118.99
66312;HTU21D;53114;51.138;6.008;2022-10-17T15:52:26;19.13;118.99
66312;HTU21D;53114;51.138;6.008;2022-10-17T15:54:53;19.16;118.99
66312;HTU21D;53114;51.138;6.008;2022-10-17T15:57:44;19.20;118.99
66312;HTU21D;53114;51.138;6.008;2022-10-17T16:00:36;19.22;118.99
66312;HTU21D;53114;51.138;6.008;2022-10-17T16:03:01;19.23;118.99
66312;HTU21D;53114;51.138;6.008;2022-10-17T16:05:27;19.24;118.99
66312;HTU21D;53114;51.138;6.008;2022-10-17T16:07:54;19.25;118.99
66312;HTU21D;53114;51.138;6.008;2022-10-17T16:10:22;19.26;118.99
66312;HTU21D;53114;51.138;6.008;2022-10-17T16:12:48;19.26;118.99
66312;HTU21D;53114;51.138;6.008;2022-10-17T16:15:18;19.26;118.99
66312;HTU21D;53114;51.138;6.008;2022-10-17T16:17:44;19.26;118.99
66312;HTU21D;53114;51.138;6.008;2022-10-17T16:20:11;19.27;118.99
66312;HTU21D;53114;51.138;6.008;2022-10-17T16:22:39;19.24;118.99
66312;HTU21D;53114;51.138;6.008;2022-10-17T16:25:22;19.23;118.99
66312;HTU21D;53114;51.138;6.008;2022-10-17T16:28:02;19.21;118.99
66312;HTU21D;53114;51.138;6.008;2022-10-17T16:30:30;19.16;118.99
66312;HTU21D;53114;51.138;6.008;2022-10-17T16:32:57;19.15;118.99
66312;HTU21D;53114;51.138;6.008;2022-10-17T16:35:29;19.14;118.99
66312;HTU21D;53114;51.138;6.008;2022-10-17T16:37:55;19.12;118.99
66312;HTU21D;53114;51.138;6.008;2022-10-17T16:40:22;19.05;118.99
66312;HTU21D;53114;51.138;6.008;2022-10-17T16:42:48;18.97;118.99
66312;HTU21D;53114;51.138;6.008;2022-10-17T16:45:18;18.91;118.99
66312;HTU21D;53114;51.138;6.008;2022-10-17T16:47:44;18.80;118.99
66312;HTU21D;53114;51.138;6.008;2022-10-17T16:50:11;18.69;118.99
66312;HTU21D;53114;51.138;6.008;2022-10-17T16:52:37;18.66;118.99
66312;HTU21D;53114;51.138;6.008;2022-10-17T16:55:03;18.61;118.99
66312;HTU21D;53114;51.138;6.008;2022-10-17T16:57:29;18.55;118.99
66312;HTU21D;53114;51.138;6.008;2022-10-17T16:59:55;18.54;118.99
66312;HTU21D;53114;51.138;6.008;2022-10-17T17:02:21;18.53;118.99
66312;HTU21D;53114;51.138;6.008;2022-10-17T17:04:49;18.51;118.99
66312;HTU21D;53114;51.138;6.008;2022-10-17T17:07:16;18.52;118.99
66312;HTU21D;53114;51.138;6.008;2022-10-17T17:09:51;18.53;118.99
66312;HTU21D;53114;51.138;6.008;2022-10-17T17:12:18;18.53;118.99
66312;HTU21D;53114;51.138;6.008;2022-10-17T17:14:44;18.55;118.99
66312;HTU21D;53114;51.138;6.008;2022-10-17T17:17:09;18.53;118.99
66312;HTU21D;53114;51.138;6.008;2022-10-17T17:19:35;18.54;118.99
66312;HTU21D;53114;51.138;6.008;2022-10-17T17:22:01;18.53;118.99
66312;HTU21D;53114;51.138;6.008;2022-10-17T17:24:27;18.49;118.99
66312;HTU21D;53114;51.138;6.008;2022-10-17T17:26:55;18.46;118.99
66312;HTU21D;53114;51.138;6.008;2022-10-17T17:29:28;18.42;118.99
66312;HTU21D;53114;51.138;6.008;2022-10-17T17:32:03;18.43;118.99
66312;HTU21D;53114;51.138;6.008;2022-10-17T17:34:37;18.40;118.99